createdAt,value
2023-02-20T00:02:25.352Z,10.77
2023-02-20T00:04:52.234Z,11.98
2023-02-20T00:07:19.060Z,9.82
2023-02-20T00:09:45.938Z,8.52
2023-02-20T00:12:12.792Z,7.40
2023-02-20T00:14:39.638Z,10.93
2023-02-20T00:17:09.333Z,8.88
2023-02-20T00:19:36.317Z,7.97
2023-02-20T00:22:03.149Z,12.82
2023-02-20T00:24:29.971Z,9.60
2023-02-20T00:26:56.831Z,10.15
2023-02-20T00:29:23.921Z,10.40
2023-02-20T00:31:52.250Z,9.65
2023-02-20T00:34:19.378Z,10.13
2023-02-20T00:36:46.232Z,7.53
2023-02-20T00:39:13.121Z,11.75
2023-02-20T00:41:40.008Z,8.15
2023-02-20T00:44:06.966Z,8.48
2023-02-20T00:46:33.911Z,8.35
2023-02-20T00:49:00.861Z,11.07
2023-02-20T00:51:46.092Z,8.13
2023-02-20T00:54:13.310Z,6.93
2023-02-20T00:56:40.135Z,9.68
2023-02-20T00:59:07.061Z,11.27
2023-02-20T01:01:34.003Z,12.43
2023-02-20T01:04:00.982Z,7.70
2023-02-20T01:06:27.854Z,8.25
2023-02-20T01:08:54.682Z,10.73
2023-02-20T01:11:21.692Z,6.57
2023-02-20T01:13:48.581Z,9.25
2023-02-20T01:16:15.647Z,8.43
2023-02-20T01:18:43.275Z,9.57
2023-02-20T01:21:10.119Z,8.80
2023-02-20T01:23:37.007Z,11.23
2023-02-20T01:26:03.917Z,8.00
2023-02-20T01:28:30.846Z,7.65
2023-02-20T01:30:57.775Z,8.75
2023-02-20T01:33:24.834Z,8.32
2023-02-20T01:35:51.871Z,8.88
2023-02-20T01:38:21.598Z,10.43
2023-02-20T01:40:49.256Z,9.52
2023-02-20T01:43:16.519Z,7.90
2023-02-20T01:45:47.177Z,7.45
2023-02-20T01:48:24.649Z,8.00
2023-02-20T01:50:56.100Z,11.27
2023-02-20T01:53:24.177Z,9.23
2023-02-20T01:55:54.070Z,8.75
2023-02-20T01:58:26.329Z,9.07
2023-02-20T02:00:53.269Z,7.22
2023-02-20T02:03:25.806Z,9.18
2023-02-20T02:08:21.412Z,9.27
2023-02-20T02:11:17.100Z,8.15
2023-02-20T02:13:44.065Z,7.28
2023-02-20T02:16:28.777Z,8.80
2023-02-20T02:19:20.024Z,8.75
2023-02-20T02:21:49.844Z,8.57
2023-02-20T02:24:41.383Z,6.97
2023-02-20T02:27:29.895Z,7.43
2023-02-20T02:30:34.603Z,9.85
2023-02-20T02:33:07.409Z,7.75
2023-02-20T02:36:11.794Z,8.52
2023-02-20T02:38:59.964Z,8.18
2023-02-20T02:41:42.721Z,7.00
2023-02-20T02:44:29.507Z,7.50
2023-02-20T02:47:03.186Z,9.32
2023-02-20T02:50:03.017Z,6.78
2023-02-20T02:52:46.787Z,7.35
2023-02-20T02:55:16.655Z,7.15
2023-02-20T02:57:44.528Z,6.95
2023-02-20T03:00:38.222Z,7.78
2023-02-20T03:03:30.399Z,7.25
2023-02-20T03:06:09.189Z,7.15
2023-02-20T03:08:47.222Z,6.65
2023-02-20T03:11:22.595Z,6.90
2023-02-20T03:14:18.854Z,6.70
2023-02-20T03:17:28.448Z,8.10
2023-02-20T03:19:59.513Z,9.60
2023-02-20T03:22:35.403Z,8.50
2023-02-20T03:25:06.526Z,7.53
2023-02-20T03:27:39.025Z,7.65
2023-02-20T03:30:19.489Z,8.02
2023-02-20T03:33:06.015Z,7.82
2023-02-20T03:35:53.355Z,8.27
2023-02-20T03:38:39.888Z,8.60
2023-02-20T03:41:25.189Z,10.73
2023-02-20T03:43:51.991Z,8.30
2023-02-20T03:46:22.832Z,9.13
2023-02-20T03:48:55.928Z,8.68
2023-02-20T03:51:42.099Z,8.23
2023-02-20T03:54:16.894Z,8.68
2023-02-20T03:56:53.179Z,10.55
2023-02-20T03:59:37.593Z,8.68
2023-02-20T04:02:08.194Z,7.35
2023-02-20T04:04:44.388Z,7.18
2023-02-20T04:07:15.693Z,7.65
2023-02-20T04:09:44.342Z,8.65
2023-02-20T04:12:22.633Z,8.20
2023-02-20T04:14:50.380Z,10.32
2023-02-20T04:17:21.285Z,8.80
2023-02-20T04:19:48.341Z,8.07
2023-02-20T04:22:24.771Z,8.95
2023-02-20T04:25:10.616Z,8.57
2023-02-20T04:27:38.753Z,9.05
2023-02-20T04:30:06.015Z,9.40
2023-02-20T04:32:32.988Z,9.07
2023-02-20T04:34:59.840Z,8.57
2023-02-20T04:37:27.392Z,8.25
2023-02-20T04:39:55.936Z,9.43
2023-02-20T04:42:22.883Z,7.03
2023-02-20T04:44:50.584Z,6.95
2023-02-20T04:47:18.054Z,7.93
2023-02-20T04:49:45.031Z,7.03
2023-02-20T04:52:15.862Z,7.65
2023-02-20T04:54:42.732Z,7.95
2023-02-20T04:57:12.429Z,6.50
2023-02-20T04:59:39.395Z,6.93
2023-02-20T05:02:07.507Z,6.40
2023-02-20T05:04:35.932Z,6.93
2023-02-20T05:07:02.758Z,6.00
2023-02-20T05:09:29.573Z,6.45
2023-02-20T05:11:56.343Z,6.85
2023-02-20T05:14:23.152Z,7.30
2023-02-20T05:16:51.264Z,6.60
2023-02-20T05:19:18.121Z,6.75
2023-02-20T05:22:03.728Z,7.53
2023-02-20T05:24:32.030Z,7.57
2023-02-20T05:26:58.860Z,7.00
2023-02-20T05:29:25.681Z,6.40
2023-02-20T05:31:52.606Z,7.70
2023-02-20T05:34:21.344Z,6.72
2023-02-20T05:36:48.474Z,7.10
2023-02-20T05:39:15.294Z,6.55
2023-02-20T05:41:42.092Z,9.13
2023-02-20T05:44:08.965Z,6.88
2023-02-20T05:46:40.163Z,6.65
2023-02-20T05:49:07.025Z,6.78
2023-02-20T05:51:34.384Z,7.25
2023-02-20T05:54:01.325Z,8.65
2023-02-20T05:56:30.111Z,7.13
2023-02-20T05:58:56.939Z,8.07
2023-02-20T06:01:25.388Z,8.32
2023-02-20T06:03:52.557Z,7.22
2023-02-20T06:06:19.665Z,7.25
2023-02-20T06:08:46.707Z,8.57
2023-02-20T06:11:13.610Z,8.05
2023-02-20T06:13:44.318Z,7.75
2023-02-20T06:16:11.608Z,9.20
2023-02-20T06:18:39.996Z,7.32
2023-02-20T06:21:10.529Z,6.47
2023-02-20T06:23:42.583Z,7.55
2023-02-20T06:26:09.345Z,9.23
2023-02-20T06:28:37.088Z,6.00
2023-02-20T06:31:04.041Z,6.30
2023-02-20T06:33:30.913Z,7.70
2023-02-20T06:35:57.758Z,6.32
2023-02-20T06:38:24.842Z,6.15
2023-02-20T06:40:51.717Z,6.18
2023-02-20T06:43:18.579Z,7.50
2023-02-20T06:45:45.432Z,7.40
2023-02-20T06:48:14.314Z,6.88
2023-02-20T06:50:41.706Z,7.05
2023-02-20T06:53:08.675Z,6.00
2023-02-20T06:55:35.520Z,6.75
2023-02-20T06:58:02.390Z,7.95
2023-02-20T07:00:29.225Z,6.90
2023-02-20T07:02:56.183Z,6.57
2023-02-20T07:05:23.021Z,6.97
2023-02-20T07:07:49.785Z,5.60
2023-02-20T07:10:16.634Z,8.93
2023-02-20T07:12:43.546Z,6.57
2023-02-20T07:15:10.891Z,6.30
2023-02-20T07:17:37.725Z,6.38
2023-02-20T07:20:05.605Z,6.78
2023-02-20T07:22:32.585Z,7.13
2023-02-20T07:24:59.473Z,6.10
2023-02-20T07:27:26.432Z,7.78
2023-02-20T07:29:53.283Z,6.43
2023-02-20T07:32:23.316Z,7.70
2023-02-20T07:35:02.953Z,7.60
2023-02-20T07:37:30.991Z,6.82
2023-02-20T07:39:57.866Z,7.28
2023-02-20T07:42:24.800Z,7.53
2023-02-20T07:44:59.471Z,6.53
2023-02-20T07:47:26.283Z,6.78
2023-02-20T07:49:53.175Z,5.45
2023-02-20T07:52:20.135Z,5.88
2023-02-20T07:54:46.993Z,5.40
2023-02-20T07:57:15.724Z,5.65
2023-02-20T07:59:42.557Z,5.57
2023-02-20T08:02:09.436Z,4.78
2023-02-20T08:04:36.212Z,6.15
2023-02-20T08:07:06.590Z,5.40
2023-02-20T08:09:33.388Z,4.95
2023-02-20T08:12:00.276Z,5.00
2023-02-20T08:14:28.481Z,5.18
2023-02-20T08:16:55.284Z,4.65
2023-02-20T08:19:22.143Z,5.22
2023-02-20T08:21:49.954Z,5.43
2023-02-20T08:24:17.043Z,4.30
2023-02-20T08:26:47.754Z,4.10
2023-02-20T08:29:15.296Z,6.07
2023-02-20T08:31:42.414Z,5.10
2023-02-20T08:34:09.385Z,4.60
2023-02-20T08:36:36.232Z,4.63
2023-02-20T08:39:05.516Z,5.85
2023-02-20T08:41:32.408Z,4.45
2023-02-20T08:43:59.312Z,4.53
2023-02-20T08:46:26.301Z,3.83
2023-02-20T08:48:53.285Z,4.38
2023-02-20T08:51:20.709Z,4.40
2023-02-20T08:53:47.754Z,4.20
2023-02-20T08:56:18.837Z,5.10
2023-02-20T08:58:45.690Z,4.72
2023-02-20T09:01:12.537Z,5.30
2023-02-20T09:03:41.771Z,5.05
2023-02-20T09:06:08.786Z,4.90
2023-02-20T09:08:35.660Z,4.70
2023-02-20T09:11:02.529Z,5.10
2023-02-20T09:13:29.757Z,4.60
2023-02-20T09:15:56.603Z,5.07
2023-02-20T09:18:23.542Z,4.72
2023-02-20T09:20:51.071Z,5.10
2023-02-20T09:23:18.298Z,5.35
2023-02-20T09:25:45.086Z,4.90
2023-02-20T09:28:11.958Z,6.63
2023-02-20T09:30:38.794Z,5.07
2023-02-20T09:33:05.646Z,5.68
2023-02-20T09:35:32.524Z,4.63
2023-02-20T09:37:59.414Z,4.40
2023-02-20T09:40:28.171Z,4.20
2023-02-20T09:42:54.950Z,4.60
2023-02-20T09:45:25.076Z,4.63
2023-02-20T09:48:10.746Z,5.82
2023-02-20T09:50:49.502Z,7.28
2023-02-20T09:53:22.008Z,4.57
2023-02-20T09:55:49.032Z,5.10
2023-02-20T09:58:40.192Z,4.57
2023-02-20T10:01:07.121Z,5.53
2023-02-20T10:03:52.206Z,4.95
2023-02-20T10:06:20.338Z,5.57
2023-02-20T10:08:50.796Z,5.10
2023-02-20T10:11:45.524Z,5.35
2023-02-20T10:14:26.519Z,5.53
2023-02-20T10:17:05.303Z,4.93
2023-02-20T10:19:38.241Z,4.25
2023-02-20T10:22:07.138Z,4.68
2023-02-20T10:25:01.839Z,4.25
2023-02-20T10:27:31.211Z,4.20
2023-02-20T10:29:58.586Z,4.35
2023-02-20T10:32:31.477Z,3.83
2023-02-20T10:35:00.630Z,4.03
2023-02-20T10:37:35.925Z,5.07
2023-02-20T10:40:21.172Z,5.13
2023-02-20T10:43:20.549Z,4.90
2023-02-20T10:46:48.668Z,4.72
2023-02-20T10:49:28.168Z,5.32
2023-02-20T10:51:57.070Z,4.55
2023-02-20T10:54:29.197Z,5.25
2023-02-20T10:57:03.348Z,6.32
2023-02-20T10:59:34.244Z,5.15
2023-02-20T11:02:01.859Z,4.13
2023-02-20T11:04:58.819Z,4.68
2023-02-20T11:07:26.388Z,6.03
2023-02-20T11:09:53.920Z,4.65
2023-02-20T11:12:35.795Z,7.20
2023-02-20T11:15:26.442Z,4.05
2023-02-20T11:17:53.951Z,4.05
2023-02-20T11:20:47.698Z,3.92
2023-02-20T11:23:34.620Z,5.32
2023-02-20T11:26:23.106Z,9.40
2023-02-20T11:29:05.399Z,6.95
2023-02-20T11:31:32.653Z,6.15
2023-02-20T11:33:59.568Z,5.30
2023-02-20T11:36:28.195Z,5.97
2023-02-20T11:39:03.285Z,4.80
2023-02-20T11:41:32.798Z,5.05
2023-02-20T11:44:08.414Z,5.00
2023-02-20T11:46:35.359Z,4.50
2023-02-20T11:49:09.981Z,7.05
2023-02-20T11:51:44.464Z,7.85
2023-02-20T11:54:15.061Z,8.18
2023-02-20T11:57:02.224Z,4.40
2023-02-20T11:59:41.626Z,4.10
2023-02-20T12:02:15.329Z,7.57
2023-02-20T12:04:42.966Z,6.60
2023-02-20T12:07:28.648Z,6.10
2023-02-20T12:09:58.701Z,6.55
2023-02-20T12:12:28.126Z,4.30
2023-02-20T12:14:55.146Z,5.07
2023-02-20T12:17:26.535Z,7.75
2023-02-20T12:20:15.897Z,6.60
2023-02-20T12:22:50.099Z,5.18
2023-02-20T12:25:50.014Z,5.88
2023-02-20T12:28:35.117Z,6.30
2023-02-20T12:31:33.192Z,5.30
2023-02-20T12:34:34.900Z,8.13
2023-02-20T12:37:42.583Z,5.82
2023-02-20T12:40:24.736Z,5.78
2023-02-20T12:43:30.505Z,5.32
2023-02-20T12:46:06.350Z,4.72
2023-02-20T12:48:34.814Z,5.15
2023-02-20T12:51:12.405Z,8.20
2023-02-20T12:54:21.538Z,5.65
2023-02-20T12:56:57.364Z,5.95
2023-02-20T12:59:42.538Z,5.35
2023-02-20T13:02:35.790Z,6.13
2023-02-20T13:05:13.158Z,5.15
2023-02-20T13:07:46.554Z,4.90
2023-02-20T13:10:17.149Z,4.82
2023-02-20T13:12:44.847Z,6.85
2023-02-20T13:15:18.163Z,5.68
2023-02-20T13:18:23.427Z,5.13
2023-02-20T13:20:52.944Z,6.00
2023-02-20T13:23:20.182Z,5.95
2023-02-20T13:25:49.912Z,7.20
2023-02-20T13:28:45.831Z,5.10
2023-02-20T13:31:19.230Z,6.55
2023-02-20T13:34:05.842Z,5.57
2023-02-20T13:36:36.548Z,8.00
2023-02-20T13:39:19.954Z,7.10
2023-02-20T13:41:56.432Z,5.40
2023-02-20T13:44:38.434Z,4.82
2023-02-20T13:47:22.165Z,6.45
2023-02-20T13:49:58.106Z,5.88
2023-02-20T13:52:41.257Z,6.82
2023-02-20T13:55:11.055Z,7.15
2023-02-20T13:57:45.705Z,6.38
2023-02-20T14:00:37.960Z,4.95
2023-02-20T14:03:28.310Z,6.32
2023-02-20T14:06:07.879Z,7.43
2023-02-20T14:08:40.596Z,5.20
2023-02-20T14:11:27.532Z,6.18
2023-02-20T14:13:56.950Z,5.90
2023-02-20T14:16:35.418Z,6.28
2023-02-20T14:19:25.897Z,5.15
2023-02-20T14:21:52.815Z,7.13
2023-02-20T14:24:27.759Z,8.75
2023-02-20T14:26:56.934Z,8.90
2023-02-20T14:29:32.751Z,6.55
2023-02-20T14:32:00.856Z,6.30
2023-02-20T14:34:48.051Z,6.20
2023-02-20T14:37:17.145Z,5.65
2023-02-20T14:39:52.757Z,7.28
2023-02-20T14:42:24.491Z,5.32
2023-02-20T14:45:00.281Z,5.22
2023-02-20T14:47:27.385Z,5.90
2023-02-20T14:49:54.240Z,6.35
2023-02-20T14:52:23.268Z,4.70
2023-02-20T14:55:01.056Z,6.60
2023-02-20T14:57:28.646Z,7.30
2023-02-20T15:00:17.440Z,5.55
2023-02-20T15:02:45.909Z,6.22
2023-02-20T15:05:26.686Z,5.45
2023-02-20T15:07:53.561Z,6.75
2023-02-20T15:10:41.095Z,6.15
2023-02-20T15:13:11.582Z,4.93
2023-02-20T15:15:39.737Z,6.43
2023-02-20T15:18:08.445Z,5.82
2023-02-20T15:20:37.852Z,6.30
2023-02-20T15:23:34.785Z,6.22
2023-02-20T15:26:37.281Z,5.05
2023-02-20T15:29:19.740Z,7.50
2023-02-20T15:31:47.232Z,4.53
2023-02-20T15:34:24.060Z,5.80
2023-02-20T15:36:50.884Z,5.88
2023-02-20T15:39:26.358Z,6.18
2023-02-20T15:44:25.556Z,5.80
2023-02-20T15:46:52.386Z,6.60
2023-02-20T15:49:20.828Z,5.20
2023-02-20T15:51:48.010Z,6.90
2023-02-20T15:54:16.526Z,5.18
2023-02-20T15:56:43.391Z,6.85
2023-02-20T15:59:11.996Z,6.38
2023-02-20T16:01:39.725Z,7.45
2023-02-20T16:04:10.964Z,6.75
2023-02-20T16:06:37.916Z,7.80
2023-02-20T16:09:04.780Z,5.85
2023-02-20T16:11:41.530Z,6.03
2023-02-20T16:14:08.555Z,6.40
2023-02-20T16:16:37.597Z,5.82
2023-02-20T16:19:04.693Z,6.63
2023-02-20T16:21:31.635Z,5.60
2023-02-20T16:23:58.599Z,8.63
2023-02-20T16:26:27.399Z,8.68
2023-02-20T16:29:02.201Z,7.10
2023-02-20T16:31:53.925Z,8.70
2023-02-20T16:34:25.060Z,6.00
2023-02-20T16:36:52.447Z,5.95
2023-02-20T16:39:26.234Z,6.18
2023-02-20T16:41:53.825Z,5.18
2023-02-20T16:44:58.762Z,5.50
2023-02-20T16:47:31.062Z,4.93
2023-02-20T16:50:01.407Z,5.63
2023-02-20T16:52:30.472Z,6.53
2023-02-20T16:54:57.734Z,6.30
2023-02-20T16:57:25.052Z,7.55
2023-02-20T16:59:55.604Z,5.82
2023-02-20T17:02:25.415Z,5.22
2023-02-20T17:04:52.297Z,6.05
2023-02-20T17:07:19.578Z,4.90
2023-02-20T17:09:46.924Z,6.05
2023-02-20T17:12:16.261Z,6.95
2023-02-20T17:14:43.388Z,6.65
2023-02-20T17:17:10.561Z,5.85
2023-02-20T17:19:39.114Z,6.47
2023-02-20T17:22:06.600Z,6.60
2023-02-20T17:24:33.680Z,6.32
2023-02-20T17:27:01.413Z,6.45
2023-02-20T17:29:28.462Z,6.40
2023-02-20T17:31:55.469Z,6.43
2023-02-20T17:34:22.375Z,7.20
2023-02-20T17:36:49.582Z,7.75
2023-02-20T17:39:21.428Z,7.10
2023-02-20T17:41:49.410Z,9.05
2023-02-20T17:44:17.629Z,9.60
2023-02-20T17:46:44.563Z,8.07
2023-02-20T17:49:11.708Z,6.40
2023-02-20T17:51:38.593Z,8.52
2023-02-20T17:54:05.747Z,7.18
2023-02-20T17:56:32.585Z,8.57
2023-02-20T17:58:59.893Z,6.80
2023-02-20T18:01:27.687Z,7.05
2023-02-20T18:03:55.313Z,6.78
2023-02-20T18:06:22.303Z,7.03
2023-02-20T18:08:50.528Z,6.90
2023-02-20T18:11:17.834Z,7.78
2023-02-20T18:13:44.840Z,7.85
2023-02-20T18:16:11.866Z,7.70
2023-02-20T18:18:38.988Z,7.28
2023-02-20T18:21:06.039Z,8.73
2023-02-20T18:23:32.877Z,7.35
2023-02-20T18:25:59.820Z,7.68
2023-02-20T18:28:26.812Z,10.48
2023-02-20T18:30:53.706Z,13.30
2023-02-20T18:33:20.572Z,11.85
2023-02-20T18:35:52.732Z,12.55
2023-02-20T18:38:29.211Z,10.13
2023-02-20T18:40:56.081Z,7.40
2023-02-20T18:43:23.000Z,8.02
2023-02-20T18:45:49.903Z,6.95
2023-02-20T18:48:16.981Z,5.90
2023-02-20T18:50:44.005Z,6.28
2023-02-20T18:53:11.187Z,6.65
2023-02-20T18:55:38.458Z,8.88
2023-02-20T18:58:05.535Z,6.13
2023-02-20T19:00:34.802Z,7.25
2023-02-20T19:03:02.595Z,6.55
2023-02-20T19:05:29.520Z,6.88
2023-02-20T19:07:56.396Z,6.65
2023-02-20T19:10:24.367Z,7.32
2023-02-20T19:12:51.427Z,11.35
2023-02-20T19:15:18.673Z,10.20
2023-02-20T19:17:46.477Z,11.30
2023-02-20T19:20:19.307Z,13.15
2023-02-20T19:22:46.359Z,15.65
2023-02-20T19:25:13.827Z,13.07
2023-02-20T19:27:40.822Z,13.00
2023-02-20T19:30:08.254Z,12.38
2023-02-20T19:32:35.373Z,12.45
2023-02-20T19:35:02.465Z,13.95
2023-02-20T19:37:29.305Z,14.90
2023-02-20T19:39:56.149Z,13.40
2023-02-20T19:42:23.531Z,14.70
2023-02-20T19:44:50.764Z,13.20
2023-02-20T19:47:18.502Z,15.48
2023-02-20T19:49:48.611Z,13.77
2023-02-20T19:52:15.601Z,17.48
2023-02-20T19:54:46.273Z,16.00
2023-02-20T19:57:13.433Z,18.30
2023-02-20T19:59:40.300Z,16.08
2023-02-20T20:02:07.702Z,17.88
2023-02-20T20:04:34.585Z,15.27
2023-02-20T20:07:02.745Z,17.23
2023-02-20T20:09:36.666Z,17.90
2023-02-20T20:12:05.000Z,17.00
2023-02-20T20:14:32.013Z,20.55
2023-02-20T20:16:59.062Z,18.63
2023-02-20T20:19:25.988Z,18.15
2023-02-20T20:21:52.820Z,19.13
2023-02-20T20:24:19.741Z,17.55
2023-02-20T20:26:46.649Z,17.65
2023-02-20T20:29:13.593Z,19.92
2023-02-20T20:31:41.238Z,19.02
2023-02-20T20:34:08.332Z,19.17
2023-02-20T20:36:35.500Z,20.65
2023-02-20T20:39:02.599Z,20.13
2023-02-20T20:41:33.305Z,20.20
2023-02-20T20:44:06.669Z,18.20
2023-02-20T20:46:36.978Z,18.40
2023-02-20T20:49:03.835Z,20.40
2023-02-20T20:51:30.708Z,20.80
2023-02-20T20:53:57.590Z,19.73
2023-02-20T20:56:24.597Z,23.92
2023-02-20T20:58:51.440Z,21.00
2023-02-20T21:01:18.718Z,23.98
2023-02-20T21:03:45.595Z,20.23
2023-02-20T21:06:12.918Z,21.45
2023-02-20T21:08:39.828Z,20.58
2023-02-20T21:11:06.950Z,22.17
2023-02-20T21:13:33.885Z,21.05
2023-02-20T21:16:00.813Z,23.17
2023-02-20T21:18:27.674Z,20.27
2023-02-20T21:20:54.565Z,22.30
2023-02-20T21:23:21.464Z,20.20
2023-02-20T21:25:48.465Z,20.90
2023-02-20T21:28:15.327Z,21.02
2023-02-20T21:30:43.361Z,20.38
2023-02-20T21:33:10.322Z,22.60
2023-02-20T21:35:37.232Z,19.77
2023-02-20T21:38:04.027Z,19.25
2023-02-20T21:40:30.961Z,19.75
2023-02-20T21:43:16.192Z,18.50
2023-02-20T21:45:44.439Z,17.83
2023-02-20T21:48:13.159Z,18.27
2023-02-20T21:50:40.146Z,19.23
2023-02-20T21:53:07.222Z,17.55
2023-02-20T21:55:34.160Z,19.05
2023-02-20T21:58:01.372Z,20.95
2023-02-20T22:00:28.256Z,18.80
2023-02-20T22:02:55.144Z,16.23
2023-02-20T22:05:22.108Z,19.73
2023-02-20T22:08:07.760Z,17.63
2023-02-20T22:10:53.058Z,16.25
2023-02-20T22:13:38.578Z,17.25
2023-02-20T22:16:23.867Z,15.48
2023-02-20T22:19:09.649Z,15.23
2023-02-20T22:21:55.212Z,13.88
2023-02-20T22:24:40.697Z,15.30
2023-02-20T22:27:27.263Z,15.07
2023-02-20T22:30:13.709Z,15.57
2023-02-20T22:32:59.244Z,16.02
2023-02-20T22:35:44.695Z,16.60
2023-02-20T22:38:30.196Z,17.20
2023-02-20T22:41:16.349Z,18.23
2023-02-20T22:44:02.148Z,16.15
2023-02-20T22:46:47.875Z,17.70
2023-02-20T22:49:33.618Z,18.17
2023-02-20T22:52:19.711Z,16.95
2023-02-20T22:55:06.415Z,17.83
2023-02-20T22:57:52.768Z,18.23
2023-02-20T23:00:38.161Z,20.95
2023-02-20T23:03:23.497Z,16.13
2023-02-20T23:06:17.371Z,18.42
2023-02-20T23:09:03.448Z,17.25
2023-02-20T23:11:52.262Z,17.45
2023-02-20T23:14:38.107Z,17.10
2023-02-20T23:17:34.965Z,15.50
2023-02-20T23:20:21.932Z,16.17
2023-02-20T23:23:07.516Z,17.77
2023-02-20T23:25:52.705Z,18.27
2023-02-20T23:28:37.986Z,16.33
2023-02-20T23:31:24.474Z,17.35
2023-02-20T23:34:10.235Z,16.08
2023-02-20T23:36:55.744Z,15.48
2023-02-20T23:39:41.111Z,19.67
2023-02-20T23:42:26.597Z,16.50
2023-02-20T23:45:12.057Z,15.10
2023-02-20T23:47:59.238Z,15.63
2023-02-20T23:50:44.582Z,16.73
2023-02-20T23:53:29.892Z,18.92
2023-02-20T23:56:15.406Z,14.02
2023-02-20T23:59:01.015Z,16.85
